Time;durP1;ratioP1;P1;durP2;ratioP2;P2;SDS_P1;SDS_P2;PMS_P1;PMS_P2;Temp;Humidity;BMP_temperature;BMP_pressure;BME280_temperature;BME280_humidity;BME280_pressure;Samples;Min_cycle;Max_cycle;Signal;HPM_P1;HPM_P2
2023/07/21 00:01:22;;;;;;;3.53;2.13;;;;;;;12.51;100.00;101071.13;5001454;28;20200;-54
2023/07/21 00:03:48;;;;;;;2.20;2.00;;;;;;;12.42;100.00;101068.78;4981526;28;20280;-52
2023/07/21 00:06:17;;;;;;;4.25;1.88;;;;;;;12.45;100.00;101074.06;4996827;28;20640;-53
2023/07/21 00:08:43;;;;;;;5.70;2.00;;;;;;;12.13;100.00;101078.94;5000633;28;20596;-52
2023/07/21 00:11:09;;;;;;;5.07;1.92;;;;;;;12.13;100.00;101066.41;4986450;28;20185;-52
2023/07/21 00:13:35;;;;;;;3.78;1.80;;;;;;;12.18;100.00;101079.63;5001137;28;20660;-52
2023/07/21 00:16:03;;;;;;;5.32;2.08;;;;;;;12.23;100.00;101076.75;4999194;28;20201;-52
2023/07/21 00:18:30;;;;;;;7.38;2.42;;;;;;;12.24;100.00;101074.00;5000588;28;20279;-51
2023/07/21 00:20:55;;;;;;;2.92;1.95;;;;;;;12.24;100.00;101075.81;5000958;28;20247;-53
2023/07/21 00:23:23;;;;;;;3.15;2.03;;;;;;;12.24;100.00;101065.06;4995411;28;20211;-54
2023/07/21 00:25:50;;;;;;;7.25;2.28;;;;;;;12.14;100.00;101062.75;4998076;28;20275;-54
2023/07/21 00:28:17;;;;;;;4.57;2.67;;;;;;;12.15;100.00;101056.44;4999834;28;20304;-54
2023/07/21 00:30:48;;;;;;;6.07;2.55;;;;;;;12.20;100.00;101050.91;5001504;28;20208;-53
2023/07/21 00:33:15;;;;;;;4.45;2.08;;;;;;;12.20;100.00;101053.59;5001920;28;20244;-54
2023/07/21 00:35:43;;;;;;;3.53;2.20;;;;;;;12.27;100.00;101049.69;5000997;28;20255;-52
2023/07/21 00:38:09;;;;;;;3.35;2.10;;;;;;;12.18;100.00;101038.44;4982058;28;20189;-53
2023/07/21 00:40:37;;;;;;;3.78;2.00;;;;;;;12.26;100.00;101034.50;4989728;28;20271;-53
2023/07/21 00:43:03;;;;;;;2.40;1.55;;;;;;;12.29;100.00;101047.81;4994224;28;20178;-53
2023/07/21 00:45:34;;;;;;;5.35;1.90;;;;;;;12.27;100.00;101038.97;4998775;28;20243;-54
2023/07/21 00:48:01;;;;;;;3.30;2.13;;;;;;;12.21;100.00;101051.78;4999322;28;20510;-53
2023/07/21 00:50:27;;;;;;;3.55;1.88;;;;;;;12.24;100.00;101038.19;4997579;28;20335;-54
2023/07/21 00:52:53;;;;;;;4.18;2.33;;;;;;;12.23;100.00;101040.03;4995652;28;20284;-54
2023/07/21 00:55:18;;;;;;;5.40;2.13;;;;;;;12.14;100.00;101048.47;4977360;28;20205;-52
2023/07/21 00:57:44;;;;;;;7.07;2.35;;;;;;;12.18;100.00;101036.66;4992123;28;20185;-53
2023/07/21 01:00:13;;;;;;;4.55;2.08;;;;;;;11.95;100.00;101054.56;4978846;28;20181;-54
2023/07/21 01:02:39;;;;;;;5.47;2.55;;;;;;;11.89;100.00;101046.75;4981683;28;20176;-52
2023/07/21 01:05:07;;;;;;;2.05;1.85;;;;;;;11.95;100.00;101035.78;4983096;28;20180;-54
2023/07/21 01:07:36;;;;;;;3.15;2.13;;;;;;;11.98;100.00;101032.09;4996102;28;20185;-53
2023/07/21 01:10:03;;;;;;;3.22;2.22;;;;;;;12.06;100.00;101046.06;4961803;28;20277;-53
2023/07/21 01:12:30;;;;;;;5.45;2.05;;;;;;;11.99;100.00;101041.91;4996207;28;20205;-52
2023/07/21 01:14:56;;;;;;;3.80;2.08;;;;;;;11.93;100.00;101045.69;4999863;28;20186;-53
2023/07/21 01:17:22;;;;;;;4.30;1.95;;;;;;;11.93;100.00;101034.97;5001384;28;20229;-52
2023/07/21 01:19:50;;;;;;;2.45;1.92;;;;;;;12.00;100.00;101040.09;4995231;28;20193;-53
2023/07/21 01:22:34;;;;;;;3.25;1.92;;;;;;;11.88;100.00;101044.16;4997588;28;20657;-53
2023/07/21 01:25:07;;;;;;;3.75;2.17;;;;;;;11.73;100.00;101029.50;4979351;28;20679;-53
2023/07/21 01:27:39;;;;;;;4.13;2.28;;;;;;;11.79;100.00;101028.38;4981264;28;20535;-53
2023/07/21 01:30:11;;;;;;;4.93;2.28;;;;;;;11.72;100.00;101034.00;4984005;28;20188;-54
2023/07/21 01:32:40;;;;;;;4.30;1.92;;;;;;;11.62;100.00;101024.56;4980377;28;20351;-52
2023/07/21 01:35:08;;;;;;;7.40;2.30;;;;;;;11.64;100.00;101025.38;4981416;28;20193;-52
2023/07/21 01:37:38;;;;;;;2.47;1.85;;;;;;;11.70;100.00;101021.56;4998275;28;20184;-54
2023/07/21 01:40:08;;;;;;;2.90;2.20;;;;;;;11.66;100.00;101020.81;4997338;28;20671;-52
2023/07/21 01:42:35;;;;;;;2.00;1.83;;;;;;;11.61;100.00;101017.44;4979710;28;20196;-54
2023/07/21 01:45:04;;;;;;;2.58;1.73;;;;;;;11.58;100.00;101024.72;4998333;28;20176;-54
2023/07/21 01:47:32;;;;;;;2.75;2.28;;;;;;;11.63;100.00;101020.06;5000940;28;20435;-54
2023/07/21 01:49:58;;;;;;;5.70;2.50;;;;;;;11.47;100.00;101015.28;4986156;28;20635;-52
2023/07/21 01:52:37;;;;;;;4.13;2.50;;;;;;;11.58;100.00;101022.06;5001396;28;20400;-53
2023/07/21 01:55:12;;;;;;;5.72;2.60;;;;;;;11.48;100.00;101005.44;4992382;28;20272;-54
2023/07/21 01:57:43;;;;;;;5.07;2.55;;;;;;;11.45;100.00;101008.25;4977339;28;20181;-51
2023/07/21 02:00:12;;;;;;;4.18;2.50;;;;;;;11.44;100.00;101011.88;4988149;28;20310;-53
2023/07/21 02:02:47;;;;;;;4.70;2.88;;;;;;;11.46;100.00;101004.63;4987662;28;20192;-52
2023/07/21 02:05:24;;;;;;;4.90;2.60;;;;;;;11.39;100.00;101014.72;4997842;28;20203;-52
2023/07/21 02:07:53;;;;;;;3.75;3.10;;;;;;;11.47;100.00;101014.41;4981084;28;20271;-51
2023/07/21 02:10:18;;;;;;;3.88;2.65;;;;;;;11.52;100.00;101012.41;4993422;28;20327;-51
2023/07/21 02:12:50;;;;;;;3.90;2.33;;;;;;;11.44;100.00;101010.06;5003939;28;20291;-52
2023/07/21 02:15:16;;;;;;;6.10;3.15;;;;;;;11.52;100.00;101013.31;4985719;28;20280;-51
2023/07/21 02:17:42;;;;;;;8.35;2.83;;;;;;;11.44;100.00;101010.06;4995268;28;20586;-49
2023/07/21 02:20:09;;;;;;;3.83;2.45;;;;;;;11.43;100.00;101012.78;5002231;28;20247;-52
2023/07/21 02:22:43;;;;;;;6.93;3.15;;;;;;;11.41;100.00;100999.41;4986105;28;20178;-48
2023/07/21 02:25:12;;;;;;;6.88;2.40;;;;;;;11.47;100.00;101003.69;4996294;28;20663;-49
2023/07/21 02:27:38;;;;;;;5.18;2.72;;;;;;;11.49;100.00;101002.69;4984634;28;20186;-49
2023/07/21 02:30:05;;;;;;;4.72;2.40;;;;;;;11.53;100.00;100993.59;4996905;28;20212;-48
2023/07/21 02:32:32;;;;;;;4.28;2.17;;;;;;;11.51;100.00;100990.09;4977600;28;20298;-50
2023/07/21 02:34:58;;;;;;;3.15;2.17;;;;;;;11.50;100.00;100985.66;4994251;28;20189;-49
2023/07/21 02:37:25;;;;;;;3.10;2.70;;;;;;;11.51;100.00;100995.44;4999855;28;20189;-48
2023/07/21 02:39:52;;;;;;;3.85;2.45;;;;;;;11.54;100.00;100990.00;4999416;28;20184;-49
2023/07/21 02:42:17;;;;;;;3.08;2.22;;;;;;;11.54;100.00;100991.78;4999620;28;20205;-51
2023/07/21 02:44:44;;;;;;;5.95;2.63;;;;;;;11.34;100.00;100998.78;5000682;28;20307;-50
2023/07/21 02:47:13;;;;;;;5.53;2.40;;;;;;;11.42;100.00;100997.63;4975257;28;20239;-49
2023/07/21 02:49:40;;;;;;;5.03;2.88;;;;;;;11.37;100.00;100988.88;5001224;28;20685;-49
2023/07/21 02:52:06;;;;;;;5.88;2.38;;;;;;;11.39;100.00;100992.38;5000202;28;20369;-48
2023/07/21 02:54:32;;;;;;;5.35;2.53;;;;;;;11.40;100.00;100989.63;4963961;28;20193;-49
2023/07/21 02:56:58;;;;;;;5.57;2.13;;;;;;;11.13;100.00;100989.78;4983125;28;20625;-49
2023/07/21 02:59:26;;;;;;;6.20;2.50;;;;;;;11.15;100.00;100992.41;4998318;28;20263;-49
2023/07/21 03:01:54;;;;;;;3.17;2.22;;;;;;;11.24;100.00;100992.06;4990004;28;20165;-47
2023/07/21 03:04:28;;;;;;;4.50;2.10;;;;;;;11.34;100.00;100988.06;4990602;28;20200;-47
2023/07/21 03:06:58;;;;;;;4.03;2.35;;;;;;;11.25;100.00;100991.09;4983788;28;20263;-48
2023/07/21 03:09:24;;;;;;;4.45;2.10;;;;;;;11.22;100.00;100987.69;4975384;28;20177;-49
2023/07/21 03:11:49;;;;;;;4.68;2.30;;;;;;;11.18;100.00;100978.00;5002847;28;20258;-48
2023/07/21 03:14:38;;;;;;;2.13;1.60;;;;;;;11.24;100.00;100983.09;4979341;28;20196;-47
2023/07/21 03:17:04;;;;;;;2.90;1.95;;;;;;;11.19;100.00;100988.66;4988953;28;20216;-49
2023/07/21 03:19:32;;;;;;;4.85;2.55;;;;;;;11.23;100.00;100984.06;4981114;28;20832;-49
2023/07/21 03:22:03;;;;;;;5.68;2.13;;;;;;;11.15;100.00;100981.69;4970917;28;20169;-48
2023/07/21 03:24:29;;;;;;;4.07;1.98;;;;;;;11.24;100.00;100969.69;4981619;28;20224;-48
2023/07/21 03:26:56;;;;;;;6.13;2.22;;;;;;;11.27;100.00;100980.31;4986552;28;20679;-48
2023/07/21 03:29:23;;;;;;;5.63;2.20;;;;;;;11.23;100.00;100974.19;4988602;28;20179;-47
2023/07/21 03:31:48;;;;;;;5.30;2.30;;;;;;;11.28;100.00;100974.00;5001781;28;20603;-50
2023/07/21 03:34:16;;;;;;;3.75;2.15;;;;;;;11.28;100.00;100974.91;4983710;28;20340;-49
2023/07/21 03:36:41;;;;;;;4.65;2.10;;;;;;;11.30;100.00;100970.38;4982401;28;20283;-48
2023/07/21 03:39:07;;;;;;;6.97;2.75;;;;;;;11.29;100.00;100979.31;4999044;28;20199;-49
2023/07/21 03:41:33;;;;;;;4.80;2.33;;;;;;;11.35;100.00;100972.88;4998514;28;20218;-48
2023/07/21 03:43:59;;;;;;;3.60;2.47;;;;;;;11.37;100.00;100976.34;4980421;28;20260;-49
2023/07/21 03:46:25;;;;;;;4.03;2.20;;;;;;;11.39;100.00;100974.50;4983290;28;20255;-49
2023/07/21 03:49:11;;;;;;;4.60;2.00;;;;;;;11.36;100.00;100977.28;5001951;28;20173;-50
2023/07/21 03:51:39;;;;;;;4.70;2.30;;;;;;;11.37;100.00;100962.06;4984508;28;20706;-48
2023/07/21 03:54:08;;;;;;;3.85;2.10;;;;;;;11.45;100.00;100973.34;4988567;28;20173;-49
2023/07/21 03:56:33;;;;;;;2.90;2.10;;;;;;;11.48;100.00;100978.63;4986877;28;20190;-49
2023/07/21 03:59:01;;;;;;;3.22;2.00;;;;;;;11.53;100.00;100971.25;4983374;28;20723;-49
2023/07/21 04:01:27;;;;;;;4.70;2.10;;;;;;;11.60;100.00;100975.44;5004290;28;20462;-48
2023/07/21 04:03:52;;;;;;;2.20;2.00;;;;;;;11.57;100.00;100969.31;4987767;28;20503;-50
2023/07/21 04:06:20;;;;;;;3.78;2.00;;;;;;;11.60;100.00;100963.84;4976346;28;20205;-48
2023/07/21 04:08:46;;;;;;;5.20;2.60;;;;;;;11.54;100.00;100960.47;4982976;28;20180;-47
2023/07/21 04:11:11;;;;;;;3.15;1.95;;;;;;;11.65;100.00;100977.94;4990973;28;20200;-48
2023/07/21 04:13:37;;;;;;;2.80;2.20;;;;;;;11.66;100.00;100967.13;4983338;28;20296;-49
2023/07/21 04:16:02;;;;;;;4.90;2.13;;;;;;;11.70;100.00;100957.16;4989924;28;20239;-48
2023/07/21 04:18:28;;;;;;;3.65;2.10;;;;;;;11.80;100.00;100963.88;5004513;28;20264;-47
2023/07/21 04:20:54;;;;;;;3.42;2.00;;;;;;;11.88;100.00;100958.25;5000821;28;20205;-48
2023/07/21 04:23:19;;;;;;;2.30;1.95;;;;;;;11.90;100.00;100972.47;4990935;28;20168;-49
2023/07/21 04:25:48;;;;;;;3.13;2.30;;;;;;;11.86;100.00;100960.94;4980086;28;20545;-48
2023/07/21 04:28:14;;;;;;;4.20;2.17;;;;;;;11.93;100.00;100957.09;4994211;28;20284;-48
2023/07/21 04:30:41;;;;;;;3.80;2.10;;;;;;;11.99;100.00;100960.47;4982932;28;20180;-48
2023/07/21 04:33:06;;;;;;;4.00;2.35;;;;;;;11.95;100.00;100952.53;4987938;28;20382;-50
2023/07/21 04:35:33;;;;;;;4.13;2.55;;;;;;;12.01;100.00;100955.91;4991620;28;20203;-49
2023/07/21 04:38:04;;;;;;;4.70;2.35;;;;;;;12.09;100.00;100951.06;4978049;28;20181;-48
2023/07/21 04:40:36;;;;;;;3.17;2.10;;;;;;;12.13;100.00;100952.69;4976125;28;20662;-48
2023/07/21 04:43:02;;;;;;;3.22;1.85;;;;;;;12.13;100.00;100950.00;4999559;28;20782;-49
2023/07/21 04:45:27;;;;;;;3.13;2.20;;;;;;;12.18;100.00;100953.41;4989576;28;20307;-47
2023/07/21 04:48:00;;;;;;;4.00;1.70;;;;;;;12.27;100.00;100944.06;4980671;28;20227;-49
2023/07/21 04:50:29;;;;;;;3.88;2.00;;;;;;;12.31;100.00;100942.97;5001107;28;20186;-48
2023/07/21 04:52:55;;;;;;;6.32;2.28;;;;;;;12.39;100.00;100948.00;4986570;28;20544;-48
2023/07/21 04:55:22;;;;;;;4.93;2.00;;;;;;;12.46;100.00;100946.78;4986122;28;20236;-48
2023/07/21 04:57:48;;;;;;;4.03;2.25;;;;;;;12.61;100.00;100947.94;4988370;28;20271;-47
2023/07/21 05:00:15;;;;;;;1.85;1.75;;;;;;;12.70;100.00;100944.81;4984678;28;20272;-47
2023/07/21 05:02:41;;;;;;;4.78;1.75;;;;;;;12.83;100.00;100946.00;4998637;28;20172;-49
2023/07/21 05:05:07;;;;;;;3.47;2.00;;;;;;;12.94;100.00;100948.22;4977978;28;20580;-48
2023/07/21 05:07:38;;;;;;;4.80;2.10;;;;;;;13.07;100.00;100943.13;4983543;28;20185;-48
2023/07/21 05:10:05;;;;;;;3.92;1.90;;;;;;;13.08;100.00;100943.06;4987051;28;20170;-49
2023/07/21 05:12:31;;;;;;;2.63;2.15;;;;;;;12.98;100.00;100937.22;5007222;23;20298;-42
2023/07/21 05:15:24;;;;;;;5.68;2.05;;;;;;;13.06;100.00;100944.97;5004307;28;20224;-45
2023/07/21 05:17:58;;;;;;;2.78;1.95;;;;;;;13.18;100.00;100938.13;5014437;28;20168;-47
2023/07/21 05:20:26;;;;;;;7.53;2.38;;;;;;;13.23;100.00;100937.91;5021902;28;20303;-41
2023/07/21 05:23:21;;;;;;;3.70;1.70;;;;;;;13.47;100.00;100936.78;5011487;28;20610;-44
2023/07/21 05:26:00;;;;;;;3.67;1.88;;;;;;;13.56;100.00;100946.22;5008692;28;20279;-44
2023/07/21 05:28:27;;;;;;;3.92;1.80;;;;;;;13.63;100.00;100934.19;5009016;28;20269;-44
2023/07/21 05:30:53;;;;;;;5.15;1.85;;;;;;;13.68;100.00;100933.97;5008974;28;20654;-42
2023/07/21 05:33:21;;;;;;;4.20;1.50;;;;;;;13.87;100.00;100931.25;5008650;28;20685;-45
2023/07/21 05:35:47;;;;;;;4.05;1.60;;;;;;;13.86;100.00;100932.16;5008768;28;20201;-41
2023/07/21 05:38:20;;;;;;;6.38;1.73;;;;;;;13.86;100.00;100933.03;5008828;28;20267;-45
2023/07/21 05:40:56;;;;;;;4.47;1.55;;;;;;;14.05;100.00;100922.22;5008637;28;20196;-47
2023/07/21 05:43:23;;;;;;;1.60;1.17;;;;;;;14.30;100.00;100931.72;5008660;28;20660;-43
2023/07/21 05:45:49;;;;;;;2.88;1.50;;;;;;;14.31;100.00;100933.47;5008306;28;20224;-45
2023/07/21 05:48:15;;;;;;;2.05;1.17;;;;;;;14.45;100.00;100930.91;5008548;28;20180;-45
2023/07/21 05:50:44;;;;;;;2.70;1.60;;;;;;;14.54;100.00;100934.94;5008645;28;20650;-43
2023/07/21 05:53:09;;;;;;;5.03;1.30;;;;;;;14.49;100.00;100926.22;5008373;28;20242;-42
2023/07/21 05:55:40;;;;;;;5.07;1.45;;;;;;;14.58;100.00;100921.28;5008311;28;20216;-42
2023/07/21 05:58:05;;;;;;;4.78;1.55;;;;;;;14.67;100.00;100930.69;5008502;28;20246;-44
2023/07/21 06:00:36;;;;;;;5.93;1.65;;;;;;;14.66;100.00;100928.94;5008380;28;20176;-47
2023/07/21 06:03:02;;;;;;;4.78;1.27;;;;;;;14.69;100.00;100922.50;5022073;28;20182;-43
2023/07/21 06:05:29;;;;;;;5.45;1.60;;;;;;;14.82;100.00;100928.97;5012067;28;20251;-42
2023/07/21 06:08:17;;;;;;;3.90;1.50;;;;;;;14.96;100.00;100931.78;5009779;28;20262;-45
2023/07/21 06:11:17;;;;;;;4.43;1.55;;;;;;;15.14;100.00;100923.63;5008293;28;20568;-42
2023/07/21 06:13:46;;;;;;;5.40;1.00;;;;;;;15.31;99.73;100922.69;5007341;28;20671;-47
2023/07/21 06:16:31;;;;;;;3.72;1.30;;;;;;;15.51;98.33;100908.06;5009454;28;20251;-44
2023/07/21 06:18:56;;;;;;;3.33;1.30;;;;;;;15.61;97.28;100896.63;5009430;28;20196;-51
2023/07/21 06:21:22;;;;;;;1.70;1.10;;;;;;;15.98;95.44;100894.50;5013205;28;20268;-45
2023/07/21 06:23:48;;;;;;;4.47;1.70;;;;;;;15.99;94.92;100901.63;5010363;28;20607;-44
2023/07/21 06:26:14;;;;;;;3.88;1.48;;;;;;;15.99;93.11;100893.53;5012716;28;20207;-43
2023/07/21 06:28:41;;;;;;;5.13;1.45;;;;;;;16.28;92.15;100883.63;5012128;28;20173;-44
2023/07/21 06:31:10;;;;;;;3.05;1.52;;;;;;;16.39;90.51;100887.53;5012043;28;20176;-45
2023/07/21 06:34:00;;;;;;;2.72;1.48;;;;;;;16.40;89.37;100879.34;5012109;28;20521;-45
2023/07/21 06:36:40;;;;;;;3.97;1.27;;;;;;;16.53;88.64;100878.53;5011786;28;20197;-44
2023/07/21 06:39:33;;;;;;;5.22;1.30;;;;;;;16.79;87.73;100874.19;5019866;28;20216;-44
2023/07/21 06:42:05;;;;;;;3.60;1.20;;;;;;;17.06;86.39;100871.63;5012289;28;20208;-42
2023/07/21 06:44:54;;;;;;;4.15;1.50;;;;;;;17.43;84.08;100872.78;5011175;28;20169;-49
2023/07/21 06:47:27;;;;;;;3.92;1.50;;;;;;;17.81;82.52;100869.31;5011392;28;20168;-44
2023/07/21 06:50:11;;;;;;;2.85;1.33;;;;;;;17.94;81.00;100857.69;5013365;28;20275;-42
2023/07/21 06:52:39;;;;;;;4.40;1.27;;;;;;;17.42;81.13;100857.47;5011256;28;20196;-44
2023/07/21 06:55:06;;;;;;;4.70;1.50;;;;;;;17.67;81.44;100866.69;5011384;28;20184;-44
2023/07/21 06:57:32;;;;;;;5.43;1.50;;;;;;;17.33;80.95;100858.09;4995247;28;20168;-41
2023/07/21 06:59:57;;;;;;;4.25;1.00;;;;;;;17.06;81.21;100860.78;5011692;28;20188;-45
2023/07/21 07:02:24;;;;;;;2.28;1.13;;;;;;;17.32;82.46;100874.44;5012897;28;20187;-42
2023/07/21 07:04:51;;;;;;;3.05;1.33;;;;;;;17.49;82.47;100874.19;5011544;28;20176;-49
2023/07/21 07:07:17;;;;;;;4.53;1.13;;;;;;;17.17;81.66;100869.06;5008611;28;20197;-44
2023/07/21 07:09:43;;;;;;;3.08;1.40;;;;;;;17.04;81.65;100865.44;5019450;28;20176;-43
2023/07/21 07:12:10;;;;;;;4.05;1.33;;;;;;;17.49;81.36;100864.25;5011139;28;20207;-46
2023/07/21 07:14:36;;;;;;;3.53;1.15;;;;;;;17.72;80.16;100867.25;5011334;28;20173;-43
2023/07/21 07:17:01;;;;;;;3.70;1.20;;;;;;;18.38;79.81;100860.00;5019395;28;20268;-46
2023/07/21 07:19:28;;;;;;;1.25;0.90;;;;;;;17.74;79.13;100857.16;5012315;28;20267;-50
2023/07/21 07:21:54;;;;;;;2.00;1.13;;;;;;;17.21;79.30;100851.66;5012054;28;20257;-42
2023/07/21 07:24:20;;;;;;;3.33;1.10;;;;;;;17.26;80.40;100857.63;5012139;28;20243;-45
2023/07/21 07:26:47;;;;;;;4.22;1.40;;;;;;;17.57;80.43;100852.03;5012268;28;20694;-46
2023/07/21 07:29:15;;;;;;;3.13;1.23;;;;;;;17.82;79.54;100851.25;5010496;28;20260;-40
2023/07/21 07:31:41;;;;;;;2.28;1.10;;;;;;;17.84;79.55;100849.31;5012275;28;20204;-48
2023/07/21 07:34:07;;;;;;;2.17;1.13;;;;;;;17.53;79.45;100845.94;5012054;28;20180;-48
2023/07/21 07:36:33;;;;;;;2.25;1.33;;;;;;;17.57;79.65;100858.31;5010021;28;20267;-43
2023/07/21 07:38:58;;;;;;;3.35;1.25;;;;;;;17.58;78.56;100857.34;5012044;28;20539;-41
2023/07/21 07:41:24;;;;;;;3.67;1.25;;;;;;;17.79;78.14;100859.56;5015510;28;20164;-48
2023/07/21 07:43:49;;;;;;;2.13;1.27;;;;;;;18.16;78.05;100867.91;5011080;28;20624;-43
2023/07/21 07:46:17;;;;;;;3.03;1.05;;;;;;;18.35;77.43;100870.22;5012034;28;20231;-44
2023/07/21 07:48:44;;;;;;;2.03;0.85;;;;;;;17.46;76.38;100871.69;5012481;28;20265;-43
2023/07/21 07:51:10;;;;;;;2.28;0.70;;;;;;;16.37;75.78;100865.97;5012235;28;20580;-42
2023/07/21 07:53:36;;;;;;;1.55;0.70;;;;;;;15.86;77.81;100877.16;5012497;28;20212;-44
2023/07/21 07:56:02;;;;;;;2.50;0.98;;;;;;;15.22;78.25;100875.50;5014962;28;20192;-42
2023/07/21 07:58:28;;;;;;;3.95;1.08;;;;;;;15.17;80.10;100889.22;5013219;28;20267;-45
2023/07/21 08:00:58;;;;;;;0.90;0.90;;;;;;;14.81;82.31;100902.97;5010754;28;20215;-47
2023/07/21 08:03:25;;;;;;;3.00;1.10;;;;;;;14.88;84.43;100906.19;5012161;28;20597;-45
2023/07/21 08:05:51;;;;;;;1.00;0.88;;;;;;;15.07;85.13;100906.06;5024897;28;20566;-46
2023/07/21 08:08:19;;;;;;;1.33;0.98;;;;;;;15.12;84.88;100906.66;5012322;28;20171;-47
2023/07/21 08:10:44;;;;;;;2.33;1.20;;;;;;;14.66;86.41;100909.19;5017777;28;20161;-47
2023/07/21 08:13:10;;;;;;;1.45;0.90;;;;;;;15.11;87.30;100911.19;5011672;28;20205;-50
2023/07/21 08:15:38;;;;;;;2.75;1.00;;;;;;;14.90;87.36;100901.59;5011956;28;20593;-47
2023/07/21 08:18:03;;;;;;;0.80;0.80;;;;;;;15.18;87.54;100909.03;5012044;28;20189;-45
2023/07/21 08:20:29;;;;;;;1.38;1.00;;;;;;;15.11;86.92;100899.50;5012046;28;20210;-47
2023/07/21 08:22:54;;;;;;;1.50;1.08;;;;;;;15.11;87.23;100900.41;5010760;28;20337;-52
2023/07/21 08:25:20;;;;;;;1.42;1.05;;;;;;;14.84;88.02;100897.38;5011435;28;20204;-45
2023/07/21 08:27:46;;;;;;;1.33;1.20;;;;;;;15.24;89.29;100889.78;5011608;28;20180;-48
2023/07/21 08:30:12;;;;;;;1.13;1.02;;;;;;;14.94;89.54;100897.78;5011745;28;20247;-46
2023/07/21 08:32:40;;;;;;;1.90;1.15;;;;;;;14.47;91.33;100902.03;5011679;28;20201;-46
2023/07/21 08:35:07;;;;;;;1.52;1.15;;;;;;;14.94;92.89;100900.47;5010372;28;20696;-47
2023/07/21 08:37:33;;;;;;;4.07;1.23;;;;;;;15.13;93.37;100903.88;5005526;28;20232;-51
2023/07/21 08:39:59;;;;;;;2.03;1.00;;;;;;;15.08;94.27;100905.09;5001489;28;20745;-46
2023/07/21 08:42:25;;;;;;;1.90;1.20;;;;;;;14.76;94.85;100915.84;4997055;28;20540;-45
2023/07/21 08:44:53;;;;;;;2.95;1.25;;;;;;;14.92;96.01;100907.78;4986813;28;20180;-44
2023/07/21 08:47:19;;;;;;;1.40;1.27;;;;;;;14.92;96.23;100900.53;5000801;28;20690;-44
2023/07/21 08:49:45;;;;;;;1.40;1.30;;;;;;;15.08;96.40;100908.66;4997150;28;20191;-44
2023/07/21 08:52:11;;;;;;;1.95;1.10;;;;;;;15.00;96.22;100906.41;5005340;28;20556;-44
2023/07/21 08:54:37;;;;;;;1.50;1.40;;;;;;;15.10;96.15;100897.78;4999365;28;20227;-42
2023/07/21 08:57:02;;;;;;;1.30;1.20;;;;;;;15.02;96.42;100899.09;5000007;28;20215;-42
2023/07/21 08:59:28;;;;;;;2.20;1.30;;;;;;;15.54;97.03;100883.56;4996135;28;20193;-41
2023/07/21 09:01:54;;;;;;;2.08;1.50;;;;;;;14.96;95.35;100882.38;5000602;28;20165;-41
2023/07/21 09:04:25;;;;;;;2.20;1.50;;;;;;;15.42;95.22;100877.91;4997407;28;20279;-42
2023/07/21 09:06:57;;;;;;;2.70;1.50;;;;;;;16.04;93.29;100879.72;4998142;28;20312;-42
2023/07/21 09:09:25;;;;;;;3.55;1.75;;;;;;;15.84;93.22;100876.38;4999318;28;20173;-42
2023/07/21 09:12:03;;;;;;;1.85;1.50;;;;;;;15.79;91.99;100873.09;4999075;28;20205;-41
2023/07/21 09:14:36;;;;;;;1.52;1.40;;;;;;;15.79;91.55;100877.66;4993943;28;20679;-41
2023/07/21 09:17:07;;;;;;;4.53;2.10;;;;;;;15.20;91.24;100870.19;5002322;28;20200;-40
2023/07/21 09:19:38;;;;;;;2.10;1.23;;;;;;;15.46;91.73;100870.53;4992789;28;20723;-41
2023/07/21 09:22:04;;;;;;;2.17;1.33;;;;;;;15.93;92.43;100874.97;4989010;28;20169;-41
2023/07/21 09:24:30;;;;;;;3.63;1.40;;;;;;;16.11;92.53;100878.38;4999664;28;20792;-42
2023/07/21 09:27:14;;;;;;;4.63;1.33;;;;;;;16.03;92.42;100886.97;4997647;28;20212;-41
2023/07/21 09:29:43;;;;;;;2.13;1.25;;;;;;;16.34;93.72;100879.72;4996085;28;20177;-41
2023/07/21 09:32:17;;;;;;;4.82;1.70;;;;;;;16.17;94.57;100886.13;4995288;28;20254;-41
2023/07/21 09:34:58;;;;;;;2.47;1.88;;;;;;;16.02;96.14;100889.75;5000581;28;20185;-41
2023/07/21 09:37:26;;;;;;;4.88;1.60;;;;;;;16.02;97.28;100889.75;5000219;28;20199;-40
2023/07/21 09:39:54;;;;;;;1.45;1.35;;;;;;;16.17;97.53;100879.88;4996665;28;20557;-41
2023/07/21 09:42:24;;;;;;;2.25;1.27;;;;;;;16.14;95.38;100880.06;5000425;28;20185;-41
2023/07/21 09:44:50;;;;;;;2.90;0.98;;;;;;;16.54;93.98;100867.66;5001707;28;20185;-44
2023/07/21 09:47:17;;;;;;;1.30;0.90;;;;;;;16.42;90.78;100861.19;4999355;28;20189;-41
2023/07/21 09:49:46;;;;;;;1.10;1.00;;;;;;;16.50;88.88;100857.13;5000904;28;20180;-40
2023/07/21 09:52:18;;;;;;;1.15;1.02;;;;;;;16.46;87.50;100849.22;5000004;28;20266;-42
2023/07/21 09:54:47;;;;;;;1.00;0.73;;;;;;;16.63;86.05;100844.56;4997976;28;20636;-41
2023/07/21 09:57:25;;;;;;;0.80;0.80;;;;;;;16.46;83.75;100845.59;4999505;28;20740;-40
2023/07/21 09:59:56;;;;;;;0.93;0.77;;;;;;;16.32;81.99;100835.66;4998819;28;20196;-41
2023/07/21 10:02:21;;;;;;;1.30;1.10;;;;;;;17.61;81.05;100835.44;4998611;28;20256;-41
2023/07/21 10:04:47;;;;;;;1.30;0.90;;;;;;;17.68;78.17;100820.50;5000881;28;20269;-40
2023/07/21 10:07:13;;;;;;;1.05;0.85;;;;;;;18.78;76.06;100812.88;5003098;28;20978;-42
2023/07/21 10:09:39;;;;;;;1.00;0.70;;;;;;;19.48;74.58;100801.31;4998497;28;20549;-41
2023/07/21 10:12:16;;;;;;;0.82;0.80;;;;;;;19.51;71.77;100801.13;4992686;28;20679;-43
2023/07/21 10:14:44;;;;;;;1.30;0.90;;;;;;;19.37;69.23;100780.41;5002279;28;20212;-42
2023/07/21 10:17:11;;;;;;;1.98;0.80;;;;;;;19.49;70.50;100782.19;5000249;28;20284;-42
2023/07/21 10:19:41;;;;;;;2.90;1.00;;;;;;;19.70;70.18;100778.84;4999660;28;20179;-43
2023/07/21 10:22:11;;;;;;;3.42;1.10;;;;;;;19.49;68.17;100775.91;4992620;28;20173;-41
2023/07/21 10:24:48;;;;;;;1.40;1.10;;;;;;;19.36;67.89;100773.25;4991867;28;20209;-40
2023/07/21 10:27:23;;;;;;;1.10;0.90;;;;;;;19.23;67.12;100765.16;5001180;28;20195;-41
2023/07/21 10:29:53;;;;;;;1.45;1.10;;;;;;;19.55;66.77;100762.72;5001497;28;20203;-41
2023/07/21 10:32:24;;;;;;;3.20;1.10;;;;;;;19.35;66.50;100766.97;5008869;28;20275;-42
2023/07/21 10:34:51;;;;;;;0.98;0.95;;;;;;;19.71;65.13;100761.56;5002491;28;20197;-40
2023/07/21 10:37:18;;;;;;;2.83;1.00;;;;;;;19.37;65.24;100766.81;4999881;28;20215;-43
2023/07/21 10:39:53;;;;;;;1.10;1.00;;;;;;;17.89;68.53;100782.13;5010983;28;20181;-45
2023/07/21 10:42:19;;;;;;;1.95;0.70;;;;;;;17.19;71.66;100806.72;5003836;28;20187;-46
2023/07/21 10:44:46;;;;;;;2.08;1.05;;;;;;;16.30;75.50;100840.28;4997953;28;20189;-43
2023/07/21 10:47:17;;;;;;;1.58;1.10;;;;;;;16.37;78.48;100863.28;4997597;28;20199;-45
2023/07/21 10:49:43;;;;;;;1.30;1.08;;;;;;;16.11;81.20;100878.38;4997229;28;20256;-44
2023/07/21 10:52:09;;;;;;;2.53;1.25;;;;;;;15.81;85.72;100891.94;4995459;28;20200;-43
2023/07/21 10:54:35;;;;;;;2.13;1.00;;;;;;;15.28;89.62;100894.03;4996666;28;20177;-44
2023/07/21 10:57:02;;;;;;;4.50;1.40;;;;;;;15.14;92.68;100902.06;5003907;28;20216;-47
2023/07/21 10:59:32;;;;;;;1.55;1.10;;;;;;;15.02;95.18;100908.97;5000203;28;20185;-45
2023/07/21 11:01:58;;;;;;;1.50;1.10;;;;;;;15.40;96.98;100893.34;5003955;28;20181;-46
2023/07/21 11:04:23;;;;;;;2.47;1.20;;;;;;;15.41;98.25;100891.50;5014906;28;20200;-43
2023/07/21 11:06:52;;;;;;;2.55;1.30;;;;;;;15.53;100.00;100887.25;4997696;28;20217;-47
2023/07/21 11:09:19;;;;;;;4.25;1.35;;;;;;;15.72;100.00;100892.44;4999581;28;20269;-44
2023/07/21 11:11:46;;;;;;;2.88;1.40;;;;;;;15.32;100.00;100889.34;4997562;28;20267;-51
2023/07/21 11:14:13;;;;;;;2.85;1.20;;;;;;;15.56;100.00;100877.09;5000171;28;20275;-50
2023/07/21 11:16:43;;;;;;;2.30;1.10;;;;;;;15.82;100.00;100881.00;5003372;28;20205;-48
2023/07/21 11:19:09;;;;;;;1.00;0.90;;;;;;;15.73;100.00;100886.09;5002384;28;20616;-49
2023/07/21 11:21:35;;;;;;;3.03;1.15;;;;;;;16.09;100.00;100883.03;5002474;28;20199;-49
2023/07/21 11:24:03;;;;;;;1.42;1.10;;;;;;;16.32;100.00;100873.53;5001581;28;20173;-49
2023/07/21 11:26:29;;;;;;;2.10;0.95;;;;;;;16.50;100.00;100862.53;4998559;28;20208;-49
2023/07/21 11:28:59;;;;;;;3.47;1.33;;;;;;;16.98;100.00;100846.88;5004420;28;20597;-50